Terminal Aerodrome Forecast
Issued by NWS

Home | Current Version | Previous Version | Text Only | Print | Product List | Glossary On
Versions: 1 2 3 4 5 6 7 8 9 10 11 12 13 14
000
FTUS44 KEPZ 281720
TAFDMN
TAF
KDMN 281720Z 2818/2918 07007KT P6SM SCT070
     FM282000 08007KT P6SM VCTS SCT070CB
     FM290000 07006KT P6SM BKN070=

USA.gov is the U.S. government's official web portal to all federal, state and local government web resources and services.